sensor_id;sensor_type;location;lat;lon;timestamp;temperature;humidity
57030;DHT22;42920;45.306;20.448;2023-08-06T00:00:05;512.70;2380.80
57030;DHT22;42920;45.306;20.448;2023-08-06T00:02:31;512.70;2380.80
57030;DHT22;42920;45.306;20.448;2023-08-06T00:04:57;512.90;2380.80
57030;DHT22;42920;45.306;20.448;2023-08-06T00:07:22;512.90;2380.80
57030;DHT22;42920;45.306;20.448;2023-08-06T00:09:48;512.90;2380.80
57030;DHT22;42920;45.306;20.448;2023-08-06T00:12:14;537.60;2406.40
57030;DHT22;42920;45.306;20.448;2023-08-06T00:14:39;537.80;2406.40
57030;DHT22;42920;45.306;20.448;2023-08-06T00:17:05;537.80;2406.40
57030;DHT22;42920;45.306;20.448;2023-08-06T00:19:32;537.60;2406.40
57030;DHT22;42920;45.306;20.448;2023-08-06T00:21:57;512.90;2380.80
57030;DHT22;42920;45.306;20.448;2023-08-06T00:24:23;512.70;2380.80
57030;DHT22;42920;45.306;20.448;2023-08-06T00:26:49;512.60;2380.80
57030;DHT22;42920;45.306;20.448;2023-08-06T00:29:14;512.60;2380.80
57030;DHT22;42920;45.306;20.448;2023-08-06T00:31:40;512.40;2380.80
57030;DHT22;42920;45.306;20.448;2023-08-06T00:34:06;512.40;2380.80
57030;DHT22;42920;45.306;20.448;2023-08-06T00:36:31;512.30;2380.80
57030;DHT22;42920;45.306;20.448;2023-08-06T00:38:57;512.30;2380.80
57030;DHT22;42920;45.306;20.448;2023-08-06T00:41:23;512.30;2355.20
57030;DHT22;42920;45.306;20.448;2023-08-06T00:43:48;512.20;2380.80
57030;DHT22;42920;45.306;20.448;2023-08-06T00:48:41;512.20;2380.80
57030;DHT22;42920;45.306;20.448;2023-08-06T00:51:09;512.10;2380.80
57030;DHT22;42920;45.306;20.448;2023-08-06T00:53:36;512.10;2380.80
57030;DHT22;42920;45.306;20.448;2023-08-06T00:56:02;512.00;2380.80
57030;DHT22;42920;45.306;20.448;2023-08-06T00:58:29;512.10;2380.80
57030;DHT22;42920;45.306;20.448;2023-08-06T01:00:54;512.30;2380.80
57030;DHT22;42920;45.306;20.448;2023-08-06T01:03:20;512.40;2380.80
57030;DHT22;42920;45.306;20.448;2023-08-06T01:05:46;512.70;2380.80
57030;DHT22;42920;45.306;20.448;2023-08-06T01:11:02;537.60;2406.40
57030;DHT22;42920;45.306;20.448;2023-08-06T01:13:42;537.60;2406.40
57030;DHT22;42920;45.306;20.448;2023-08-06T01:16:09;537.60;2406.40
57030;DHT22;42920;45.306;20.448;2023-08-06T01:18:35;537.70;2252.80
57030;DHT22;42920;45.306;20.448;2023-08-06T01:21:03;537.70;2329.60
57030;DHT22;42920;45.306;20.448;2023-08-06T01:23:28;537.80;2124.80
57030;DHT22;42920;45.306;20.448;2023-08-06T01:29:04;512.60;2380.80
57030;DHT22;42920;45.306;20.448;2023-08-06T01:31:34;512.50;2380.80
57030;DHT22;42920;45.306;20.448;2023-08-06T01:34:01;512.60;2380.80
57030;DHT22;42920;45.306;20.448;2023-08-06T01:36:28;512.70;2380.80
57030;DHT22;42920;45.306;20.448;2023-08-06T01:38:54;512.90;2380.80
57030;DHT22;42920;45.306;20.448;2023-08-06T01:41:20;512.90;2380.80
57030;DHT22;42920;45.306;20.448;2023-08-06T01:43:46;537.60;2406.40
57030;DHT22;42920;45.306;20.448;2023-08-06T01:46:11;537.60;2406.40
57030;DHT22;42920;45.306;20.448;2023-08-06T01:48:37;537.60;2406.40
57030;DHT22;42920;45.306;20.448;2023-08-06T01:51:06;537.70;2406.40
57030;DHT22;42920;45.306;20.448;2023-08-06T01:53:33;537.70;2355.20
57030;DHT22;42920;45.306;20.448;2023-08-06T01:55:59;537.60;2176.00
57030;DHT22;42920;45.306;20.448;2023-08-06T01:58:25;512.90;2380.80
57030;DHT22;42920;45.306;20.448;2023-08-06T02:00:50;512.90;2380.80
57030;DHT22;42920;45.306;20.448;2023-08-06T02:03:16;537.60;2406.40
57030;DHT22;42920;45.306;20.448;2023-08-06T02:05:42;537.70;2329.60
57030;DHT22;42920;45.306;20.448;2023-08-06T02:08:08;537.70;2099.20
57030;DHT22;42920;45.306;20.448;2023-08-06T02:10:33;537.80;2201.60
57030;DHT22;42920;45.306;20.448;2023-08-06T02:12:59;537.80;2406.40
57030;DHT22;42920;45.306;20.448;2023-08-06T02:15:25;512.90;2227.20
57030;DHT22;42920;45.306;20.448;2023-08-06T02:17:51;512.90;2380.80
57030;DHT22;42920;45.306;20.448;2023-08-06T02:20:16;512.90;2380.80
57030;DHT22;42920;45.306;20.448;2023-08-06T02:22:42;512.70;2380.80
57030;DHT22;42920;45.306;20.448;2023-08-06T02:25:08;512.80;2380.80
57030;DHT22;42920;45.306;20.448;2023-08-06T02:27:33;512.90;2380.80
57030;DHT22;42920;45.306;20.448;2023-08-06T02:29:59;512.90;2380.80
57030;DHT22;42920;45.306;20.448;2023-08-06T02:32:25;537.70;2406.40
57030;DHT22;42920;45.306;20.448;2023-08-06T02:34:51;537.60;2304.00
57030;DHT22;42920;45.306;20.448;2023-08-06T02:37:16;512.90;2380.80
57030;DHT22;42920;45.306;20.448;2023-08-06T02:39:42;512.90;2380.80
57030;DHT22;42920;45.306;20.448;2023-08-06T02:42:08;512.70;2380.80
57030;DHT22;42920;45.306;20.448;2023-08-06T02:44:35;512.70;2380.80
57030;DHT22;42920;45.306;20.448;2023-08-06T02:47:01;512.70;2380.80
57030;DHT22;42920;45.306;20.448;2023-08-06T02:49:27;512.70;2380.80
57030;DHT22;42920;45.306;20.448;2023-08-06T02:51:52;512.60;2380.80
57030;DHT22;42920;45.306;20.448;2023-08-06T02:54:19;512.70;2380.80
57030;DHT22;42920;45.306;20.448;2023-08-06T02:56:45;512.50;2380.80
57030;DHT22;42920;45.306;20.448;2023-08-06T02:59:12;512.60;2380.80
57030;DHT22;42920;45.306;20.448;2023-08-06T03:01:38;512.50;2380.80
57030;DHT22;42920;45.306;20.448;2023-08-06T03:04:04;512.50;2380.80
57030;DHT22;42920;45.306;20.448;2023-08-06T03:06:30;512.40;2380.80
57030;DHT22;42920;45.306;20.448;2023-08-06T03:08:55;512.40;2380.80
57030;DHT22;42920;45.306;20.448;2023-08-06T03:11:21;512.40;2380.80
57030;DHT22;42920;45.306;20.448;2023-08-06T03:13:50;512.40;2380.80
57030;DHT22;42920;45.306;20.448;2023-08-06T03:16:15;512.60;2380.80
57030;DHT22;42920;45.306;20.448;2023-08-06T03:18:41;512.60;2380.80
57030;DHT22;42920;45.306;20.448;2023-08-06T03:21:07;512.60;2380.80
57030;DHT22;42920;45.306;20.448;2023-08-06T03:23:32;512.60;2380.80
57030;DHT22;42920;45.306;20.448;2023-08-06T03:26:02;512.70;2380.80
57030;DHT22;42920;45.306;20.448;2023-08-06T03:28:28;512.70;2380.80
57030;DHT22;42920;45.306;20.448;2023-08-06T03:31:01;512.90;2380.80
57030;DHT22;42920;45.306;20.448;2023-08-06T03:33:27;512.80;2380.80
57030;DHT22;42920;45.306;20.448;2023-08-06T03:35:53;512.70;2380.80
57030;DHT22;42920;45.306;20.448;2023-08-06T03:38:18;512.80;2380.80
57030;DHT22;42920;45.306;20.448;2023-08-06T03:40:44;512.90;2380.80
57030;DHT22;42920;45.306;20.448;2023-08-06T03:43:11;512.90;2380.80
57030;DHT22;42920;45.306;20.448;2023-08-06T03:45:36;512.90;2380.80
57030;DHT22;42920;45.306;20.448;2023-08-06T03:48:02;512.90;2380.80
57030;DHT22;42920;45.306;20.448;2023-08-06T03:50:28;537.60;2355.20
57030;DHT22;42920;45.306;20.448;2023-08-06T03:52:53;512.90;2201.60
57030;DHT22;42920;45.306;20.448;2023-08-06T03:55:19;512.90;2380.80
57030;DHT22;42920;45.306;20.448;2023-08-06T03:57:45;537.60;2124.80
57030;DHT22;42920;45.306;20.448;2023-08-06T04:00:11;537.60;2099.20
57030;DHT22;42920;45.306;20.448;2023-08-06T04:02:38;512.90;2380.80
57030;DHT22;42920;45.306;20.448;2023-08-06T04:05:03;512.90;2380.80
57030;DHT22;42920;45.306;20.448;2023-08-06T04:07:29;512.90;2380.80
57030;DHT22;42920;45.306;20.448;2023-08-06T04:09:57;512.80;2380.80
57030;DHT22;42920;45.306;20.448;2023-08-06T04:12:23;512.70;2380.80
57030;DHT22;42920;45.306;20.448;2023-08-06T04:14:50;512.70;2380.80
57030;DHT22;42920;45.306;20.448;2023-08-06T04:17:17;512.70;2380.80
57030;DHT22;42920;45.306;20.448;2023-08-06T04:19:46;512.70;2380.80
57030;DHT22;42920;45.306;20.448;2023-08-06T04:22:13;512.70;2380.80
57030;DHT22;42920;45.306;20.448;2023-08-06T04:24:38;512.70;2380.80
57030;DHT22;42920;45.306;20.448;2023-08-06T04:27:05;512.70;2380.80
57030;DHT22;42920;45.306;20.448;2023-08-06T04:29:30;512.60;2380.80
57030;DHT22;42920;45.306;20.448;2023-08-06T04:31:56;512.60;2380.80
57030;DHT22;42920;45.306;20.448;2023-08-06T04:34:22;512.50;2380.80
57030;DHT22;42920;45.306;20.448;2023-08-06T04:36:48;512.70;2380.80
57030;DHT22;42920;45.306;20.448;2023-08-06T04:39:13;512.90;2380.80
57030;DHT22;42920;45.306;20.448;2023-08-06T04:41:39;512.80;2380.80
57030;DHT22;42920;45.306;20.448;2023-08-06T04:44:05;512.90;2380.80
57030;DHT22;42920;45.306;20.448;2023-08-06T04:46:30;537.70;2406.40
57030;DHT22;42920;45.306;20.448;2023-08-06T04:48:56;537.70;2406.40
57030;DHT22;42920;45.306;20.448;2023-08-06T04:51:22;537.80;2406.40
57030;DHT22;42920;45.306;20.448;2023-08-06T04:53:48;537.80;2406.40
57030;DHT22;42920;45.306;20.448;2023-08-06T04:56:13;537.60;2406.40
57030;DHT22;42920;45.306;20.448;2023-08-06T04:58:39;537.60;2406.40
57030;DHT22;42920;45.306;20.448;2023-08-06T05:01:05;512.90;2380.80
57030;DHT22;42920;45.306;20.448;2023-08-06T05:03:30;512.90;2380.80
57030;DHT22;42920;45.306;20.448;2023-08-06T05:05:56;512.90;2380.80
57030;DHT22;42920;45.306;20.448;2023-08-06T05:08:22;512.90;2380.80
57030;DHT22;42920;45.306;20.448;2023-08-06T05:10:47;537.60;2406.40
57030;DHT22;42920;45.306;20.448;2023-08-06T05:13:13;537.80;2406.40
57030;DHT22;42920;45.306;20.448;2023-08-06T05:15:39;537.80;2406.40
57030;DHT22;42920;45.306;20.448;2023-08-06T05:18:08;537.80;2406.40
57030;DHT22;42920;45.306;20.448;2023-08-06T05:20:36;537.80;2406.40
57030;DHT22;42920;45.306;20.448;2023-08-06T05:23:03;537.90;2406.40
57030;DHT22;42920;45.306;20.448;2023-08-06T05:25:28;538.00;2406.40
57030;DHT22;42920;45.306;20.448;2023-08-06T05:27:54;538.00;2406.40
57030;DHT22;42920;45.306;20.448;2023-08-06T05:30:20;538.00;2406.40
57030;DHT22;42920;45.306;20.448;2023-08-06T05:32:45;538.00;2329.60
57030;DHT22;42920;45.306;20.448;2023-08-06T05:35:11;538.00;2406.40
57030;DHT22;42920;45.306;20.448;2023-08-06T05:37:37;538.30;2406.40
57030;DHT22;42920;45.306;20.448;2023-08-06T05:40:03;538.20;2406.40
57030;DHT22;42920;45.306;20.448;2023-08-06T05:42:29;538.30;2124.80
57030;DHT22;42920;45.306;20.448;2023-08-06T05:44:55;538.20;2406.40
57030;DHT22;42920;45.306;20.448;2023-08-06T05:47:21;538.10;2406.40
57030;DHT22;42920;45.306;20.448;2023-08-06T05:49:46;538.20;2406.40
57030;DHT22;42920;45.306;20.448;2023-08-06T05:52:12;538.10;2406.40
57030;DHT22;42920;45.306;20.448;2023-08-06T05:54:38;538.00;2406.40
57030;DHT22;42920;45.306;20.448;2023-08-06T05:57:04;538.00;2406.40
57030;DHT22;42920;45.306;20.448;2023-08-06T05:59:30;537.80;2406.40
57030;DHT22;42920;45.306;20.448;2023-08-06T06:01:55;537.90;2406.40
57030;DHT22;42920;45.306;20.448;2023-08-06T06:04:21;537.90;2406.40
57030;DHT22;42920;45.306;20.448;2023-08-06T06:06:47;538.00;2406.40
57030;DHT22;42920;45.306;20.448;2023-08-06T06:09:13;538.10;2406.40
57030;DHT22;42920;45.306;20.448;2023-08-06T06:11:38;538.10;2406.40
57030;DHT22;42920;45.306;20.448;2023-08-06T06:14:04;538.10;2406.40
57030;DHT22;42920;45.306;20.448;2023-08-06T06:16:30;538.10;2406.40
57030;DHT22;42920;45.306;20.448;2023-08-06T06:18:56;538.10;2406.40
57030;DHT22;42920;45.306;20.448;2023-08-06T06:21:23;538.00;2406.40
57030;DHT22;42920;45.306;20.448;2023-08-06T06:23:49;538.30;2406.40
57030;DHT22;42920;45.306;20.448;2023-08-06T06:26:17;538.30;2406.40
57030;DHT22;42920;45.306;20.448;2023-08-06T06:28:43;538.10;2406.40
57030;DHT22;42920;45.306;20.448;2023-08-06T06:31:08;538.20;2406.40
57030;DHT22;42920;45.306;20.448;2023-08-06T06:33:35;538.10;2406.40
57030;DHT22;42920;45.306;20.448;2023-08-06T06:36:00;538.00;2406.40
57030;DHT22;42920;45.306;20.448;2023-08-06T06:38:28;537.90;2406.40
57030;DHT22;42920;45.306;20.448;2023-08-06T06:40:57;538.00;2406.40
57030;DHT22;42920;45.306;20.448;2023-08-06T06:43:23;538.00;2406.40
57030;DHT22;42920;45.306;20.448;2023-08-06T06:45:59;538.10;2406.40
57030;DHT22;42920;45.306;20.448;2023-08-06T06:48:29;538.30;2406.40
57030;DHT22;42920;45.306;20.448;2023-08-06T06:50:55;538.10;2406.40
57030;DHT22;42920;45.306;20.448;2023-08-06T06:53:21;538.30;2406.40
57030;DHT22;42920;45.306;20.448;2023-08-06T06:55:53;538.30;2406.40
57030;DHT22;42920;45.306;20.448;2023-08-06T06:58:18;563.20;2432.00
57030;DHT22;42920;45.306;20.448;2023-08-06T07:00:46;538.50;2406.40
57030;DHT22;42920;45.306;20.448;2023-08-06T07:03:11;563.50;2432.00
57030;DHT22;42920;45.306;20.448;2023-08-06T07:05:37;563.80;2432.00
57030;DHT22;42920;45.306;20.448;2023-08-06T07:08:03;563.70;2099.20
57030;DHT22;42920;45.306;20.448;2023-08-06T07:50:06;589.40;2432.00
57030;DHT22;42920;45.306;20.448;2023-08-06T07:52:32;614.80;2432.00
57030;DHT22;42920;45.306;20.448;2023-08-06T07:54:58;615.00;2432.00
57030;DHT22;42920;45.306;20.448;2023-08-06T07:57:24;615.10;2432.00
57030;DHT22;42920;45.306;20.448;2023-08-06T07:59:50;614.80;2432.00
57030;DHT22;42920;45.306;20.448;2023-08-06T08:02:15;614.60;2432.00
57030;DHT22;42920;45.306;20.448;2023-08-06T08:04:41;614.50;2432.00
57030;DHT22;42920;45.306;20.448;2023-08-06T08:07:07;614.80;2432.00
57030;DHT22;42920;45.306;20.448;2023-08-06T08:09:34;614.60;2432.00
57030;DHT22;42920;45.306;20.448;2023-08-06T08:12:00;614.60;2432.00
57030;DHT22;42920;45.306;20.448;2023-08-06T08:14:28;614.50;2432.00
57030;DHT22;42920;45.306;20.448;2023-08-06T08:16:54;614.40;2432.00
57030;DHT22;42920;45.306;20.448;2023-08-06T08:19:20;614.40;2432.00
57030;DHT22;42920;45.306;20.448;2023-08-06T08:21:46;614.40;2432.00
57030;DHT22;42920;45.306;20.448;2023-08-06T08:24:12;614.40;2432.00
57030;DHT22;42920;45.306;20.448;2023-08-06T08:26:38;589.60;2432.00
57030;DHT22;42920;45.306;20.448;2023-08-06T08:29:03;589.60;2432.00
57030;DHT22;42920;45.306;20.448;2023-08-06T08:31:29;589.50;2432.00
57030;DHT22;42920;45.306;20.448;2023-08-06T08:33:55;589.50;2432.00
57030;DHT22;42920;45.306;20.448;2023-08-06T08:36:21;589.40;2432.00
57030;DHT22;42920;45.306;20.448;2023-08-06T08:38:47;589.20;2432.00
57030;DHT22;42920;45.306;20.448;2023-08-06T08:41:12;589.00;2432.00
57030;DHT22;42920;45.306;20.448;2023-08-06T08:43:39;589.00;2432.00
57030;DHT22;42920;45.306;20.448;2023-08-06T08:46:06;588.90;2432.00
57030;DHT22;42920;45.306;20.448;2023-08-06T08:48:33;589.10;2432.00
57030;DHT22;42920;45.306;20.448;2023-08-06T08:50:59;589.00;2432.00
57030;DHT22;42920;45.306;20.448;2023-08-06T08:53:26;589.10;2432.00
57030;DHT22;42920;45.306;20.448;2023-08-06T08:55:53;589.20;2432.00
57030;DHT22;42920;45.306;20.448;2023-08-06T08:58:20;589.00;2432.00
57030;DHT22;42920;45.306;20.448;2023-08-06T09:00:46;589.20;2432.00
57030;DHT22;42920;45.306;20.448;2023-08-06T09:03:13;589.30;2432.00
57030;DHT22;42920;45.306;20.448;2023-08-06T09:05:44;589.30;2432.00
57030;DHT22;42920;45.306;20.448;2023-08-06T09:08:11;589.20;2432.00
57030;DHT22;42920;45.306;20.448;2023-08-06T09:10:41;589.10;2432.00
57030;DHT22;42920;45.306;20.448;2023-08-06T09:13:08;589.20;2432.00
57030;DHT22;42920;45.306;20.448;2023-08-06T09:15:34;589.20;2432.00
57030;DHT22;42920;45.306;20.448;2023-08-06T09:18:00;589.20;2432.00
57030;DHT22;42920;45.306;20.448;2023-08-06T09:20:34;589.40;2432.00
57030;DHT22;42920;45.306;20.448;2023-08-06T09:23:07;614.50;2432.00
57030;DHT22;42920;45.306;20.448;2023-08-06T09:25:33;640.00;2432.00
57030;DHT22;42920;45.306;20.448;2023-08-06T09:28:00;640.30;2432.00
57030;DHT22;42920;45.306;20.448;2023-08-06T09:30:33;640.90;2432.00
57030;DHT22;42920;45.306;20.448;2023-08-06T09:32:59;665.70;2432.00
57030;DHT22;42920;45.306;20.448;2023-08-06T09:35:27;666.10;2432.00
57030;DHT22;42920;45.306;20.448;2023-08-06T09:37:53;666.50;2432.00
57030;DHT22;42920;45.306;20.448;2023-08-06T09:40:37;666.00;2432.00
57030;DHT22;42920;45.306;20.448;2023-08-06T09:43:03;665.60;2432.00
57030;DHT22;42920;45.306;20.448;2023-08-06T09:45:34;665.70;2432.00
57030;DHT22;42920;45.306;20.448;2023-08-06T09:48:10;666.30;2432.00
57030;DHT22;42920;45.306;20.448;2023-08-06T09:50:38;666.10;2432.00
57030;DHT22;42920;45.306;20.448;2023-08-06T09:53:06;691.20;2432.00
57030;DHT22;42920;45.306;20.448;2023-08-06T09:55:32;691.20;2432.00
57030;DHT22;42920;45.306;20.448;2023-08-06T09:57:59;666.20;2432.00
57030;DHT22;42920;45.306;20.448;2023-08-06T10:00:25;665.70;2432.00
57030;DHT22;42920;45.306;20.448;2023-08-06T10:02:52;665.60;2432.00
57030;DHT22;42920;45.306;20.448;2023-08-06T10:05:22;640.90;2432.00
57030;DHT22;42920;45.306;20.448;2023-08-06T10:07:49;666.40;2432.00
57030;DHT22;42920;45.306;20.448;2023-08-06T10:10:16;666.00;2432.00
57030;DHT22;42920;45.306;20.448;2023-08-06T10:12:48;665.70;2432.00
57030;DHT22;42920;45.306;20.448;2023-08-06T10:15:17;640.90;2432.00
57030;DHT22;42920;45.306;20.448;2023-08-06T10:17:47;640.50;2432.00
57030;DHT22;42920;45.306;20.448;2023-08-06T10:20:14;665.60;2432.00
57030;DHT22;42920;45.306;20.448;2023-08-06T10:22:44;666.50;2432.00
57030;DHT22;42920;45.306;20.448;2023-08-06T10:25:10;691.50;2432.00
57030;DHT22;42920;45.306;20.448;2023-08-06T10:27:53;691.90;2432.00
57030;DHT22;42920;45.306;20.448;2023-08-06T10:30:33;716.90;2432.00
57030;DHT22;42920;45.306;20.448;2023-08-06T10:33:00;717.20;2432.00
57030;DHT22;42920;45.306;20.448;2023-08-06T10:35:36;717.60;2432.00
57030;DHT22;42920;45.306;20.448;2023-08-06T10:40:32;717.20;2432.00
57030;DHT22;42920;45.306;20.448;2023-08-06T10:43:02;717.10;2432.00
57030;DHT22;42920;45.306;20.448;2023-08-06T10:45:28;692.00;2432.00
57030;DHT22;42920;45.306;20.448;2023-08-06T10:47:56;691.70;2432.00
57030;DHT22;42920;45.306;20.448;2023-08-06T10:50:23;691.70;2432.00
57030;DHT22;42920;45.306;20.448;2023-08-06T10:52:49;691.80;2432.00
57030;DHT22;42920;45.306;20.448;2023-08-06T10:55:26;691.60;2432.00
57030;DHT22;42920;45.306;20.448;2023-08-06T10:57:52;691.50;2432.00
57030;DHT22;42920;45.306;20.448;2023-08-06T11:00:18;691.60;2432.00
57030;DHT22;42920;45.306;20.448;2023-08-06T11:02:47;691.50;2432.00
57030;DHT22;42920;45.306;20.448;2023-08-06T11:05:14;691.30;2432.00
57030;DHT22;42920;45.306;20.448;2023-08-06T11:07:40;691.20;2432.00
57030;DHT22;42920;45.306;20.448;2023-08-06T11:10:07;666.30;2432.00
57030;DHT22;42920;45.306;20.448;2023-08-06T11:12:34;666.50;2432.00
57030;DHT22;42920;45.306;20.448;2023-08-06T11:15:00;691.80;2432.00
57030;DHT22;42920;45.306;20.448;2023-08-06T11:17:31;716.90;2432.00
57030;DHT22;42920;45.306;20.448;2023-08-06T11:20:02;717.40;2432.00
57030;DHT22;42920;45.306;20.448;2023-08-06T11:22:28;717.70;2278.40
57030;DHT22;42920;45.306;20.448;2023-08-06T11:24:54;717.70;2252.80
57030;DHT22;42920;45.306;20.448;2023-08-06T11:27:20;742.40;2432.00
57030;DHT22;42920;45.306;20.448;2023-08-06T11:29:46;717.40;2227.20
57030;DHT22;42920;45.306;20.448;2023-08-06T11:32:11;717.70;2201.60
57030;DHT22;42920;45.306;20.448;2023-08-06T11:34:38;717.70;2278.40
57030;DHT22;42920;45.306;20.448;2023-08-06T11:37:05;742.40;2304.00
57030;DHT22;42920;45.306;20.448;2023-08-06T11:39:35;742.80;2227.20
57030;DHT22;42920;45.306;20.448;2023-08-06T11:42:03;742.90;2201.60
57030;DHT22;42920;45.306;20.448;2023-08-06T11:44:31;742.80;2304.00
57030;DHT22;42920;45.306;20.448;2023-08-06T11:47:01;742.90;2304.00
57030;DHT22;42920;45.306;20.448;2023-08-06T11:49:48;742.80;2099.20
57030;DHT22;42920;45.306;20.448;2023-08-06T11:52:20;742.40;2201.60
57030;DHT22;42920;45.306;20.448;2023-08-06T11:57:32;742.90;2124.80
57030;DHT22;42920;45.306;20.448;2023-08-06T12:00:10;742.80;2201.60
57030;DHT22;42920;45.306;20.448;2023-08-06T12:02:40;717.70;2150.40
57030;DHT22;42920;45.306;20.448;2023-08-06T12:05:17;717.30;2252.80
57030;DHT22;42920;45.306;20.448;2023-08-06T12:07:51;717.00;2124.80
57030;DHT22;42920;45.306;20.448;2023-08-06T12:10:17;692.10;2304.00
57030;DHT22;42920;45.306;20.448;2023-08-06T12:12:45;692.00;2227.20
57030;DHT22;42920;45.306;20.448;2023-08-06T12:15:11;692.10;2252.80
57030;DHT22;42920;45.306;20.448;2023-08-06T12:17:37;717.40;2150.40
57030;DHT22;42920;45.306;20.448;2023-08-06T12:20:04;717.70;2099.20
57030;DHT22;42920;45.306;20.448;2023-08-06T12:22:31;717.50;2278.40
57030;DHT22;42920;45.306;20.448;2023-08-06T12:25:01;717.30;2227.20
57030;DHT22;42920;45.306;20.448;2023-08-06T12:27:28;717.20;2073.60
57030;DHT22;42920;45.306;20.448;2023-08-06T12:29:54;717.30;2150.40
57030;DHT22;42920;45.306;20.448;2023-08-06T12:32:20;692.10;2227.20
57030;DHT22;42920;45.306;20.448;2023-08-06T12:34:45;692.10;2406.40
57030;DHT22;42920;45.306;20.448;2023-08-06T12:37:11;717.00;2432.00
57030;DHT22;42920;45.306;20.448;2023-08-06T12:39:37;692.10;2406.40
57030;DHT22;42920;45.306;20.448;2023-08-06T12:42:05;691.80;2432.00
57030;DHT22;42920;45.306;20.448;2023-08-06T12:44:31;691.80;2380.80
57030;DHT22;42920;45.306;20.448;2023-08-06T12:46:58;691.60;2432.00
57030;DHT22;42920;45.306;20.448;2023-08-06T12:49:24;691.50;2432.00
57030;DHT22;42920;45.306;20.448;2023-08-06T12:51:52;666.50;2432.00
57030;DHT22;42920;45.306;20.448;2023-08-06T12:54:18;666.30;2432.00
57030;DHT22;42920;45.306;20.448;2023-08-06T12:56:45;640.90;2432.00
57030;DHT22;42920;45.306;20.448;2023-08-06T12:59:11;665.60;2432.00
57030;DHT22;42920;45.306;20.448;2023-08-06T13:01:39;640.90;2432.00
57030;DHT22;42920;45.306;20.448;2023-08-06T13:06:31;640.10;2432.00
57030;DHT22;42920;45.306;20.448;2023-08-06T13:13:56;614.70;2432.00
57030;DHT22;42920;45.306;20.448;2023-08-06T13:16:22;614.50;2432.00
57030;DHT22;42920;45.306;20.448;2023-08-06T13:18:47;589.70;2432.00
57030;DHT22;42920;45.306;20.448;2023-08-06T13:21:13;589.40;2432.00
57030;DHT22;42920;45.306;20.448;2023-08-06T13:23:39;589.20;2432.00
57030;DHT22;42920;45.306;20.448;2023-08-06T13:26:04;564.10;2432.00
57030;DHT22;42920;45.306;20.448;2023-08-06T13:28:30;564.10;2432.00
57030;DHT22;42920;45.306;20.448;2023-08-06T13:30:56;588.80;2432.00
57030;DHT22;42920;45.306;20.448;2023-08-06T13:33:22;564.10;2432.00
57030;DHT22;42920;45.306;20.448;2023-08-06T13:35:47;564.10;2432.00
57030;DHT22;42920;45.306;20.448;2023-08-06T13:38:13;588.80;2432.00
57030;DHT22;42920;45.306;20.448;2023-08-06T13:40:39;588.80;2432.00
57030;DHT22;42920;45.306;20.448;2023-08-06T13:43:04;588.90;2432.00
57030;DHT22;42920;45.306;20.448;2023-08-06T13:45:30;589.00;2432.00
57030;DHT22;42920;45.306;20.448;2023-08-06T13:47:56;589.10;2432.00
57030;DHT22;42920;45.306;20.448;2023-08-06T13:50:22;589.10;2432.00
57030;DHT22;42920;45.306;20.448;2023-08-06T13:52:51;589.00;2432.00
57030;DHT22;42920;45.306;20.448;2023-08-06T13:55:18;589.10;2432.00
57030;DHT22;42920;45.306;20.448;2023-08-06T13:57:44;589.20;2432.00
57030;DHT22;42920;45.306;20.448;2023-08-06T14:00:10;589.30;2432.00
57030;DHT22;42920;45.306;20.448;2023-08-06T14:02:36;589.50;2432.00
57030;DHT22;42920;45.306;20.448;2023-08-06T14:05:01;589.60;2432.00
57030;DHT22;42920;45.306;20.448;2023-08-06T14:07:27;589.70;2432.00
57030;DHT22;42920;45.306;20.448;2023-08-06T14:09:53;589.70;2432.00
57030;DHT22;42920;45.306;20.448;2023-08-06T14:12:18;614.40;2432.00
57030;DHT22;42920;45.306;20.448;2023-08-06T14:14:44;614.40;2432.00
57030;DHT22;42920;45.306;20.448;2023-08-06T14:17:10;614.70;2432.00
57030;DHT22;42920;45.306;20.448;2023-08-06T14:19:35;614.70;2432.00
57030;DHT22;42920;45.306;20.448;2023-08-06T14:22:01;614.80;2432.00
57030;DHT22;42920;45.306;20.448;2023-08-06T14:24:27;615.00;2432.00
57030;DHT22;42920;45.306;20.448;2023-08-06T14:26:52;614.90;2432.00
57030;DHT22;42920;45.306;20.448;2023-08-06T14:29:18;614.90;2432.00
57030;DHT22;42920;45.306;20.448;2023-08-06T14:31:44;614.80;2432.00
57030;DHT22;42920;45.306;20.448;2023-08-06T14:34:10;615.00;2432.00
57030;DHT22;42920;45.306;20.448;2023-08-06T14:36:35;615.00;2432.00
57030;DHT22;42920;45.306;20.448;2023-08-06T14:39:01;615.00;2432.00
57030;DHT22;42920;45.306;20.448;2023-08-06T14:41:27;615.00;2432.00
57030;DHT22;42920;45.306;20.448;2023-08-06T14:43:52;615.00;2432.00
57030;DHT22;42920;45.306;20.448;2023-08-06T14:46:19;615.00;2432.00
57030;DHT22;42920;45.306;20.448;2023-08-06T14:48:45;615.00;2432.00
57030;DHT22;42920;45.306;20.448;2023-08-06T14:51:10;615.00;2432.00
57030;DHT22;42920;45.306;20.448;2023-08-06T14:53:36;615.10;2432.00
57030;DHT22;42920;45.306;20.448;2023-08-06T14:56:02;615.00;2432.00
57030;DHT22;42920;45.306;20.448;2023-08-06T14:58:28;614.80;2432.00
57030;DHT22;42920;45.306;20.448;2023-08-06T15:00:53;614.80;2432.00
57030;DHT22;42920;45.306;20.448;2023-08-06T15:03:19;614.80;2432.00
57030;DHT22;42920;45.306;20.448;2023-08-06T15:05:48;614.80;2432.00
57030;DHT22;42920;45.306;20.448;2023-08-06T15:08:14;614.80;2432.00
57030;DHT22;42920;45.306;20.448;2023-08-06T15:10:40;614.80;2432.00
57030;DHT22;42920;45.306;20.448;2023-08-06T15:13:06;614.70;2432.00
57030;DHT22;42920;45.306;20.448;2023-08-06T15:15:32;614.50;2432.00
57030;DHT22;42920;45.306;20.448;2023-08-06T15:17:57;614.40;2432.00
57030;DHT22;42920;45.306;20.448;2023-08-06T15:20:24;614.40;2432.00
57030;DHT22;42920;45.306;20.448;2023-08-06T15:22:50;589.70;2432.00
57030;DHT22;42920;45.306;20.448;2023-08-06T15:25:16;589.30;2432.00
57030;DHT22;42920;45.306;20.448;2023-08-06T15:27:42;588.80;2432.00
57030;DHT22;42920;45.306;20.448;2023-08-06T15:30:08;564.00;2432.00
57030;DHT22;42920;45.306;20.448;2023-08-06T15:32:34;563.80;2432.00